createdAt,value
2022-08-04T00:02:10.663Z,3.28
2022-08-04T00:04:46.421Z,3.35
2022-08-04T00:08:00.786Z,3.47
2022-08-04T00:10:28.485Z,3.38
2022-08-04T00:12:56.162Z,3.38
2022-08-04T00:15:24.236Z,3.30
2022-08-04T00:18:01.472Z,3.45
2022-08-04T00:20:32.723Z,3.38
2022-08-04T00:23:01.134Z,3.45
2022-08-04T00:25:28.641Z,3.95
2022-08-04T00:27:55.330Z,3.00
2022-08-04T00:30:22.267Z,3.75
2022-08-04T00:32:50.132Z,3.00
2022-08-04T00:35:17.410Z,3.35
2022-08-04T00:37:47.364Z,3.00
2022-08-04T00:40:24.991Z,3.28
2022-08-04T00:43:19.586Z,3.70
2022-08-04T00:46:10.882Z,2.90
2022-08-04T00:49:11.647Z,3.47
2022-08-04T00:52:31.918Z,3.42
2022-08-04T00:55:01.730Z,3.30
2022-08-04T00:58:01.436Z,3.47
2022-08-04T01:00:32.948Z,3.58
2022-08-04T01:03:18.697Z,3.67
2022-08-04T01:06:30.790Z,3.72
2022-08-04T01:09:26.777Z,3.50
2022-08-04T01:15:03.939Z,3.80
2022-08-04T01:17:36.668Z,4.57
2022-08-04T01:20:08.761Z,4.18
2022-08-04T01:23:00.290Z,4.07
2022-08-04T01:26:01.950Z,4.20
2022-08-04T01:29:01.188Z,3.88
2022-08-04T01:31:55.277Z,3.92
2022-08-04T01:34:23.335Z,4.80
2022-08-04T01:37:02.103Z,4.35
2022-08-04T01:39:41.312Z,4.63
2022-08-04T01:42:10.688Z,4.90
2022-08-04T01:44:39.951Z,4.25
2022-08-04T01:47:08.854Z,4.20
2022-08-04T01:49:40.548Z,4.00
2022-08-04T01:52:09.273Z,5.32
2022-08-04T01:54:39.889Z,3.97
2022-08-04T01:57:37.674Z,4.18
2022-08-04T01:59:56.378Z,3.83
2022-08-04T02:02:24.765Z,4.57
2022-08-04T02:04:52.091Z,3.22
2022-08-04T02:07:37.391Z,3.00
2022-08-04T02:10:25.775Z,3.13
2022-08-04T02:12:55.510Z,3.10
2022-08-04T02:15:46.607Z,3.15
2022-08-04T02:18:24.437Z,3.08
2022-08-04T02:20:58.632Z,3.00
2022-08-04T02:23:31.475Z,3.27
2022-08-04T02:26:02.031Z,2.88
2022-08-04T02:28:48.837Z,3.30
2022-08-04T02:31:31.117Z,3.40
2022-08-04T02:34:08.816Z,2.92
2022-08-04T02:36:40.610Z,3.05
2022-08-04T02:39:09.212Z,3.00
2022-08-04T02:41:37.380Z,3.63
2022-08-04T02:44:10.463Z,3.13
2022-08-04T02:46:38.757Z,3.22
2022-08-04T02:49:09.767Z,3.05
2022-08-04T02:51:41.119Z,3.00
2022-08-04T02:54:08.503Z,2.88
2022-08-04T02:56:37.455Z,3.00
2022-08-04T02:59:10.560Z,3.22
2022-08-04T03:01:38.299Z,3.67
2022-08-04T03:04:48.848Z,2.85
2022-08-04T03:07:49.153Z,3.13
2022-08-04T03:11:05.342Z,2.75
2022-08-04T03:13:47.105Z,3.20
2022-08-04T03:16:31.849Z,3.03
2022-08-04T03:19:15.196Z,2.60
2022-08-04T03:22:06.720Z,2.97
2022-08-04T03:24:48.340Z,2.95
2022-08-04T03:27:52.627Z,2.92
2022-08-04T03:30:58.939Z,3.30
2022-08-04T03:36:10.140Z,2.58
2022-08-04T03:38:57.108Z,3.20
2022-08-04T03:41:54.857Z,3.72
2022-08-04T03:44:32.452Z,3.38
2022-08-04T03:47:19.999Z,3.00
2022-08-04T03:49:55.522Z,3.33
2022-08-04T03:52:43.661Z,3.10
2022-08-04T03:55:37.171Z,2.63
2022-08-04T03:58:40.666Z,3.28
2022-08-04T04:02:01.651Z,2.90
2022-08-04T04:04:38.813Z,2.60
2022-08-04T04:07:44.984Z,2.75
2022-08-04T04:10:31.503Z,2.97
2022-08-04T04:13:16.197Z,2.92
2022-08-04T04:15:50.577Z,2.87
2022-08-04T04:18:38.132Z,2.60
2022-08-04T04:21:19.941Z,2.30
2022-08-04T04:24:01.282Z,3.03
2022-08-04T04:26:56.146Z,2.45
2022-08-04T04:29:44.464Z,2.45
2022-08-04T04:32:23.323Z,3.17
2022-08-04T04:35:28.016Z,2.50
2022-08-04T04:38:03.579Z,2.53
2022-08-04T04:40:51.768Z,3.05
2022-08-04T04:43:58.787Z,3.05
2022-08-04T04:46:28.113Z,2.40
2022-08-04T04:49:20.723Z,2.42
2022-08-04T04:52:03.193Z,2.22
2022-08-04T04:54:51.371Z,2.10
2022-08-04T04:57:21.059Z,2.13
2022-08-04T05:00:13.091Z,2.35
2022-08-04T05:03:13.317Z,2.13
2022-08-04T05:05:59.324Z,2.28
2022-08-04T05:08:43.561Z,2.30
2022-08-04T05:11:39.624Z,2.28
2022-08-04T05:14:36.727Z,2.78
2022-08-04T05:16:59.409Z,2.20
2022-08-04T05:19:53.761Z,2.33
2022-08-04T05:22:37.573Z,1.97
2022-08-04T05:25:16.880Z,1.73
2022-08-04T05:28:15.509Z,2.40
2022-08-04T05:30:49.423Z,2.42
2022-08-04T05:33:26.052Z,2.00
2022-08-04T05:36:20.293Z,2.05
2022-08-04T05:38:51.548Z,2.35
2022-08-04T05:41:19.329Z,2.60
2022-08-04T05:43:46.845Z,2.25
2022-08-04T05:46:16.934Z,2.30
2022-08-04T05:48:45.857Z,2.42
2022-08-04T05:51:14.112Z,2.33
2022-08-04T05:53:44.430Z,2.53
2022-08-04T05:56:14.001Z,1.80
2022-08-04T05:58:41.623Z,2.00
2022-08-04T06:01:11.538Z,2.35
2022-08-04T06:03:39.816Z,2.20
2022-08-04T06:06:07.643Z,2.50
2022-08-04T06:08:34.448Z,2.33
2022-08-04T06:11:05.498Z,2.45
2022-08-04T06:13:46.774Z,3.15
2022-08-04T06:16:29.692Z,2.08
2022-08-04T06:20:02.999Z,2.63
2022-08-04T06:21:50.923Z,2.90
2022-08-04T06:24:25.099Z,2.60
2022-08-04T06:26:53.362Z,2.55
2022-08-04T06:29:34.645Z,3.10
2022-08-04T06:32:31.094Z,2.63
2022-08-04T06:35:02.069Z,2.75
2022-08-04T06:37:42.693Z,2.72
2022-08-04T06:40:31.965Z,2.85
2022-08-04T06:43:07.218Z,2.70
2022-08-04T06:45:37.067Z,3.58
2022-08-04T06:48:06.500Z,3.58
2022-08-04T06:51:25.591Z,3.00
2022-08-04T06:53:22.642Z,2.30
2022-08-04T06:55:51.152Z,2.28
2022-08-04T06:58:20.642Z,1.92
2022-08-04T07:00:48.774Z,2.10
2022-08-04T07:03:18.159Z,1.95
2022-08-04T07:05:47.471Z,1.70
2022-08-04T07:08:14.776Z,2.08
2022-08-04T07:10:41.859Z,1.88
2022-08-04T07:13:10.250Z,2.03
2022-08-04T07:15:41.353Z,1.60
2022-08-04T07:18:07.972Z,1.75
2022-08-04T07:20:36.735Z,1.40
2022-08-04T07:23:07.875Z,1.23
2022-08-04T07:26:10.829Z,1.05
2022-08-04T07:28:25.883Z,1.10
2022-08-04T07:30:54.372Z,1.30
2022-08-04T07:33:21.859Z,0.95
2022-08-04T07:36:09.895Z,0.73
2022-08-04T07:38:48.572Z,0.85
2022-08-04T07:41:37.796Z,0.93
2022-08-04T07:44:05.624Z,1.05
2022-08-04T07:46:32.359Z,0.90
2022-08-04T07:49:01.360Z,0.80
2022-08-04T07:51:30.744Z,1.15
2022-08-04T07:53:58.721Z,1.17
2022-08-04T07:56:26.900Z,0.90
2022-08-04T07:58:54.306Z,0.63
2022-08-04T08:01:21.597Z,1.33
2022-08-04T08:03:48.674Z,0.70
2022-08-04T08:06:31.171Z,0.93
2022-08-04T08:09:01.991Z,1.15
2022-08-04T08:12:38.840Z,1.30
2022-08-04T08:14:27.455Z,1.05
2022-08-04T08:16:54.115Z,1.17
2022-08-04T08:19:21.008Z,1.10
2022-08-04T08:21:59.403Z,0.60
2022-08-04T08:24:27.891Z,1.30
2022-08-04T08:26:54.675Z,1.15
2022-08-04T08:29:21.410Z,0.90
2022-08-04T08:31:57.121Z,1.08
2022-08-04T08:34:27.932Z,0.98
2022-08-04T08:37:29.247Z,0.88
2022-08-04T08:40:40.174Z,1.10
2022-08-04T08:44:00.368Z,0.98
2022-08-04T08:46:48.868Z,1.00
2022-08-04T08:50:00.988Z,1.30
2022-08-04T08:53:01.351Z,1.13
2022-08-04T08:55:40.577Z,0.98
2022-08-04T08:58:21.196Z,1.20
2022-08-04T09:00:50.530Z,0.90
2022-08-04T09:03:51.204Z,1.15
2022-08-04T09:06:46.435Z,1.30
2022-08-04T09:09:31.696Z,0.88
2022-08-04T09:12:25.693Z,0.95
2022-08-04T09:15:01.476Z,1.20
2022-08-04T09:17:33.628Z,1.02
2022-08-04T09:20:13.209Z,1.05
2022-08-04T09:22:50.699Z,1.02
2022-08-04T09:25:25.698Z,0.98
2022-08-04T09:28:00.727Z,1.00
2022-08-04T09:30:56.833Z,0.90
2022-08-04T09:33:44.897Z,1.15
2022-08-04T09:36:29.049Z,0.75
2022-08-04T09:39:10.902Z,0.95
2022-08-04T09:42:10.140Z,1.02
2022-08-04T09:44:51.264Z,1.30
2022-08-04T09:47:49.481Z,1.10
2022-08-04T09:50:35.819Z,0.88
2022-08-04T09:53:22.677Z,1.35
2022-08-04T09:56:14.648Z,0.82
2022-08-04T09:58:52.583Z,0.80
2022-08-04T10:01:23.787Z,1.23
2022-08-04T10:04:00.906Z,1.35
2022-08-04T10:07:02.539Z,1.20
2022-08-04T10:09:35.257Z,0.82
2022-08-04T10:12:23.026Z,1.42
2022-08-04T10:15:20.552Z,1.30
2022-08-04T10:18:17.248Z,1.08
2022-08-04T10:21:11.681Z,1.35
2022-08-04T10:24:00.456Z,1.00
2022-08-04T10:26:45.522Z,1.27
2022-08-04T10:29:19.644Z,0.80
2022-08-04T10:31:59.461Z,1.25
2022-08-04T10:34:36.339Z,1.20
2022-08-04T10:37:59.902Z,1.10
2022-08-04T10:40:48.577Z,1.15
2022-08-04T10:43:22.841Z,1.33
2022-08-04T10:45:57.980Z,1.08
2022-08-04T10:48:34.773Z,1.45
2022-08-04T10:51:15.522Z,1.25
2022-08-04T10:53:44.269Z,1.20
2022-08-04T10:56:22.413Z,1.20
2022-08-04T10:59:03.205Z,1.25
2022-08-04T11:02:03.040Z,0.90
2022-08-04T11:04:42.505Z,1.40
2022-08-04T11:07:10.846Z,1.50
2022-08-04T11:09:40.183Z,0.93
2022-08-04T11:12:12.891Z,1.30
2022-08-04T11:14:52.147Z,1.20
2022-08-04T11:17:27.266Z,1.35
2022-08-04T11:20:35.163Z,1.50
2022-08-04T11:23:11.905Z,1.33
2022-08-04T11:25:52.979Z,1.15
2022-08-04T11:28:58.414Z,1.35
2022-08-04T11:31:32.916Z,1.60
2022-08-04T11:34:27.353Z,1.30
2022-08-04T11:37:18.944Z,1.70
2022-08-04T11:39:54.384Z,1.58
2022-08-04T11:42:28.253Z,1.48
2022-08-04T11:45:06.590Z,1.35
2022-08-04T11:47:39.797Z,1.40
2022-08-04T11:50:09.339Z,1.65
2022-08-04T11:52:39.919Z,1.67
2022-08-04T11:55:11.467Z,1.40
2022-08-04T11:57:39.116Z,1.27
2022-08-04T12:00:12.553Z,1.20
2022-08-04T12:03:29.312Z,1.40
2022-08-04T12:06:17.869Z,1.30
2022-08-04T12:08:52.055Z,1.42
2022-08-04T12:11:24.608Z,1.30
2022-08-04T12:14:09.467Z,1.50
2022-08-04T12:16:45.348Z,1.23
2022-08-04T12:19:33.952Z,2.20
2022-08-04T12:22:20.827Z,1.20
2022-08-04T12:25:14.406Z,1.25
2022-08-04T12:27:55.608Z,1.40
2022-08-04T12:31:02.484Z,1.20
2022-08-04T12:33:23.866Z,1.35
2022-08-04T12:36:22.188Z,1.60
2022-08-04T12:38:58.646Z,1.60
2022-08-04T12:41:30.767Z,1.38
2022-08-04T12:44:36.479Z,1.60
2022-08-04T12:47:28.283Z,1.88
2022-08-04T12:50:00.406Z,1.45
2022-08-04T12:52:51.571Z,1.90
2022-08-04T12:55:16.978Z,1.40
2022-08-04T12:57:44.451Z,1.60
2022-08-04T13:00:11.588Z,1.98
2022-08-04T13:02:46.281Z,1.73
2022-08-04T13:05:17.082Z,2.03
2022-08-04T13:07:50.844Z,1.80
2022-08-04T13:10:20.152Z,1.38
2022-08-04T13:13:00.815Z,1.80
2022-08-04T13:15:29.188Z,1.38
2022-08-04T13:18:14.961Z,1.38
2022-08-04T13:20:56.376Z,1.60
2022-08-04T13:23:26.356Z,1.92
2022-08-04T13:26:45.048Z,1.35
2022-08-04T13:28:49.192Z,1.73
2022-08-04T13:34:02.375Z,1.30
2022-08-04T13:36:30.723Z,1.38
2022-08-04T13:39:08.746Z,1.40
2022-08-04T13:41:40.980Z,1.00
2022-08-04T13:44:17.310Z,1.48
2022-08-04T13:46:50.980Z,1.58
2022-08-04T13:49:38.131Z,1.70
2022-08-04T13:52:10.770Z,1.17
2022-08-04T13:54:42.685Z,1.50
2022-08-04T13:57:17.414Z,1.50
2022-08-04T13:59:51.662Z,1.48
2022-08-04T14:02:44.572Z,1.30
2022-08-04T14:05:32.418Z,1.33
2022-08-04T14:08:07.448Z,1.38
2022-08-04T14:10:35.980Z,1.35
2022-08-04T14:13:05.996Z,1.10
2022-08-04T14:16:02.908Z,1.15
2022-08-04T14:18:32.606Z,1.30
2022-08-04T14:21:16.861Z,1.63
2022-08-04T14:23:49.772Z,1.40
2022-08-04T14:26:20.772Z,1.27
2022-08-04T14:29:27.025Z,1.23
2022-08-04T14:32:01.213Z,1.20
2022-08-04T14:34:30.131Z,1.10
2022-08-04T14:37:17.901Z,1.52
2022-08-04T14:40:17.952Z,1.23
2022-08-04T14:42:55.264Z,1.58
2022-08-04T14:45:55.025Z,1.27
2022-08-04T14:48:22.549Z,1.40
2022-08-04T14:50:50.632Z,1.10
2022-08-04T14:53:23.109Z,1.30
2022-08-04T14:55:52.043Z,1.40
2022-08-04T14:58:34.685Z,1.25
2022-08-04T15:03:49.863Z,1.77
2022-08-04T15:06:22.718Z,1.20
2022-08-04T15:08:51.619Z,1.35
2022-08-04T15:11:22.781Z,1.63
2022-08-04T15:13:51.069Z,1.50
2022-08-04T15:16:17.824Z,2.00
2022-08-04T15:18:49.191Z,1.73
2022-08-04T15:21:16.858Z,1.60
2022-08-04T15:23:43.716Z,2.13
2022-08-04T15:26:17.061Z,1.92
2022-08-04T15:28:49.626Z,1.90
2022-08-04T15:32:06.580Z,1.80
2022-08-04T15:34:08.275Z,1.70
2022-08-04T15:36:56.261Z,2.00
2022-08-04T15:39:33.396Z,1.88
2022-08-04T15:42:23.890Z,1.55
2022-08-04T15:45:21.863Z,1.50
2022-08-04T15:48:11.158Z,1.40
2022-08-04T15:51:02.881Z,1.70
2022-08-04T15:54:02.404Z,1.27
2022-08-04T15:56:29.954Z,1.70
2022-08-04T15:58:57.079Z,1.60
2022-08-04T16:01:24.461Z,1.20
2022-08-04T16:03:59.698Z,1.33
2022-08-04T16:06:29.533Z,1.40
2022-08-04T16:09:05.122Z,1.35
2022-08-04T16:11:33.111Z,1.60
2022-08-04T16:14:02.391Z,1.52
2022-08-04T16:16:42.300Z,1.23
2022-08-04T16:19:14.504Z,1.60
2022-08-04T16:21:49.735Z,1.27
2022-08-04T16:24:21.417Z,2.05
2022-08-04T16:27:00.436Z,1.52
2022-08-04T16:29:47.233Z,1.67
2022-08-04T16:32:17.017Z,1.75
2022-08-04T16:34:55.015Z,1.45
2022-08-04T16:37:32.588Z,1.48
2022-08-04T16:40:37.203Z,1.92
2022-08-04T16:43:16.905Z,1.85
2022-08-04T16:45:46.261Z,1.85
2022-08-04T16:48:14.616Z,2.13
2022-08-04T16:50:50.554Z,2.10
2022-08-04T16:54:03.054Z,2.25
2022-08-04T16:56:06.893Z,2.08
2022-08-04T16:58:36.717Z,2.10
2022-08-04T17:01:12.225Z,1.90
2022-08-04T17:04:04.680Z,1.95
2022-08-04T17:06:39.415Z,2.30
2022-08-04T17:09:28.806Z,2.13
2022-08-04T17:11:56.964Z,2.10
2022-08-04T17:14:30.055Z,2.58
2022-08-04T17:17:00.188Z,2.58
2022-08-04T17:19:27.152Z,2.75
2022-08-04T17:22:04.392Z,2.70
2022-08-04T17:24:38.340Z,2.20
2022-08-04T17:28:09.262Z,2.58
2022-08-04T17:29:53.418Z,2.95
2022-08-04T17:32:22.634Z,2.60
2022-08-04T17:34:52.040Z,2.75
2022-08-04T17:37:40.617Z,2.03
2022-08-04T17:40:10.328Z,2.63
2022-08-04T17:42:39.887Z,2.25
2022-08-04T17:45:48.754Z,3.33
2022-08-04T17:47:55.895Z,2.67
2022-08-04T17:50:27.700Z,2.85
2022-08-04T17:53:02.290Z,2.72
2022-08-04T17:55:49.607Z,3.87
2022-08-04T17:58:22.369Z,2.92
2022-08-04T18:01:22.645Z,2.83
2022-08-04T18:03:52.915Z,2.90
2022-08-04T18:06:22.101Z,2.63
2022-08-04T18:08:57.431Z,2.50
2022-08-04T18:11:29.815Z,2.90
2022-08-04T18:14:09.357Z,3.53
2022-08-04T18:16:45.737Z,3.38
2022-08-04T18:19:15.359Z,2.85
2022-08-04T18:21:46.494Z,2.63
2022-08-04T18:24:36.044Z,3.22
2022-08-04T18:27:19.751Z,3.28
2022-08-04T18:30:14.961Z,3.05
2022-08-04T18:32:34.164Z,5.57
2022-08-04T18:35:05.637Z,3.83
2022-08-04T18:38:06.816Z,3.75
2022-08-04T18:40:26.564Z,2.97
2022-08-04T18:42:56.494Z,3.70
2022-08-04T18:45:24.211Z,4.20
2022-08-04T18:48:01.479Z,3.40
2022-08-04T18:51:00.733Z,3.65
2022-08-04T18:53:16.707Z,3.60
2022-08-04T18:55:56.552Z,3.63
2022-08-04T18:58:27.270Z,3.63
2022-08-04T19:00:56.082Z,4.03
2022-08-04T19:03:30.446Z,3.97
2022-08-04T19:05:59.932Z,3.55
2022-08-04T19:08:32.893Z,4.38
2022-08-04T19:11:22.006Z,3.70
2022-08-04T19:13:57.925Z,3.78
2022-08-04T19:16:29.887Z,3.92
2022-08-04T19:18:58.500Z,4.38
2022-08-04T19:22:00.919Z,4.25
2022-08-04T19:24:32.180Z,4.28
2022-08-04T19:27:02.355Z,3.90
2022-08-04T19:29:38.012Z,4.43
2022-08-04T19:34:56.765Z,4.20
2022-08-04T19:37:57.003Z,4.63
2022-08-04T19:40:12.992Z,4.65
2022-08-04T19:42:40.388Z,4.57
2022-08-04T19:45:07.466Z,4.07
2022-08-04T19:48:17.680Z,4.35
2022-08-04T19:50:23.718Z,4.20
2022-08-04T19:52:51.782Z,3.67
2022-08-04T19:58:08.995Z,3.90
2022-08-04T20:00:37.670Z,4.07
2022-08-04T20:03:11.417Z,4.20
2022-08-04T20:05:55.376Z,4.00
2022-08-04T20:08:26.370Z,4.50
2022-08-04T20:10:54.862Z,4.22
2022-08-04T20:13:21.915Z,4.72
2022-08-04T20:15:57.662Z,3.78
2022-08-04T20:18:36.803Z,3.50
2022-08-04T20:21:19.591Z,4.00
2022-08-04T20:23:52.351Z,4.25
2022-08-04T20:26:19.119Z,4.35
2022-08-04T20:28:52.033Z,3.85
2022-08-04T20:31:20.962Z,4.20
2022-08-04T20:33:53.808Z,4.75
2022-08-04T20:36:22.602Z,4.05
2022-08-04T20:38:52.685Z,4.88
2022-08-04T20:41:21.110Z,4.60
2022-08-04T20:43:49.634Z,4.32
2022-08-04T20:46:29.526Z,4.63
2022-08-04T20:48:57.526Z,5.03
2022-08-04T20:54:16.226Z,3.35
2022-08-04T20:56:50.649Z,3.35
2022-08-04T20:59:18.500Z,3.37
2022-08-04T21:01:45.267Z,3.45
2022-08-04T21:04:34.420Z,3.63
2022-08-04T21:07:06.448Z,3.33
2022-08-04T21:09:38.352Z,4.00
2022-08-04T21:12:26.733Z,3.70
2022-08-04T21:14:57.143Z,3.08
2022-08-04T21:17:56.964Z,3.85
2022-08-04T21:20:12.888Z,2.40
2022-08-04T21:22:40.790Z,3.28
2022-08-04T21:25:16.227Z,1.83
2022-08-04T21:27:43.635Z,2.22
2022-08-04T21:30:24.051Z,2.58
2022-08-04T21:32:52.463Z,2.47
2022-08-04T21:35:19.180Z,2.60
2022-08-04T21:37:57.723Z,2.47
2022-08-04T21:40:36.893Z,2.63
2022-08-04T21:45:52.540Z,2.50
2022-08-04T21:48:19.144Z,2.50
2022-08-04T21:50:50.560Z,2.40
2022-08-04T21:53:19.731Z,2.95
2022-08-04T21:56:05.658Z,2.92
2022-08-04T21:58:34.843Z,3.05
2022-08-04T22:01:12.961Z,2.47
2022-08-04T22:03:52.767Z,2.20
2022-08-04T22:06:28.438Z,1.95
2022-08-04T22:08:56.731Z,2.33
2022-08-04T22:11:43.770Z,2.60
2022-08-04T22:14:16.958Z,1.55
2022-08-04T22:16:45.315Z,1.80
2022-08-04T22:19:13.559Z,2.08
2022-08-04T22:21:46.638Z,2.22
2022-08-04T22:24:14.511Z,1.65
2022-08-04T22:26:42.323Z,1.77
2022-08-04T22:29:14.572Z,1.75
2022-08-04T22:31:55.855Z,1.63
2022-08-04T22:34:24.830Z,1.10
2022-08-04T22:36:53.716Z,1.17
2022-08-04T22:39:23.509Z,1.00
2022-08-04T22:42:03.174Z,0.93
2022-08-04T22:44:32.350Z,1.00
2022-08-04T22:47:00.617Z,1.25
2022-08-04T22:49:31.661Z,1.15
2022-08-04T22:51:59.679Z,0.90
2022-08-04T22:54:31.734Z,1.23
2022-08-04T22:56:58.596Z,1.00
2022-08-04T22:59:26.569Z,1.08
2022-08-04T23:02:01.213Z,1.33
2022-08-04T23:04:30.134Z,1.65
2022-08-04T23:06:57.480Z,1.27
2022-08-04T23:09:27.039Z,1.08
2022-08-04T23:12:27.943Z,1.30
2022-08-04T23:14:56.654Z,0.93
2022-08-04T23:17:25.116Z,1.15
2022-08-04T23:19:58.063Z,1.10
2022-08-04T23:22:41.091Z,1.30
2022-08-04T23:25:15.397Z,1.15
2022-08-04T23:27:51.201Z,1.13
2022-08-04T23:30:24.662Z,1.20
2022-08-04T23:32:56.803Z,1.15
2022-08-04T23:35:23.569Z,1.38
2022-08-04T23:37:56.884Z,0.90
2022-08-04T23:40:33.435Z,1.20
2022-08-04T23:43:11.978Z,1.20
2022-08-04T23:46:04.486Z,1.05
2022-08-04T23:48:32.262Z,1.33
2022-08-04T23:51:13.659Z,1.10
2022-08-04T23:53:41.676Z,1.33
2022-08-04T23:56:27.863Z,1.27
2022-08-04T23:58:54.536Z,1.33
